Bookmark and Share
Track history (hours):
 

Atlas

Last reported at 2014-Apr-23 13:34 UTC. Time now 2014-Apr-23 15:44 UTC.
Position N 37°57' E 023°36'.

Length 29 m; draft 5 m.

Type: Tug. MMSI: 239611000.

NotesDate/timePositionNaut miles runAvg speedWind from/ knotsBaromVisibWave heightAir tempDewpointWater temp
2014-Apr-23 13:34N 37°57' E 023°36'1 0.7
2014-Apr-23 12:33N 37°57' E 023°36'1 1.0
2014-Apr-23 11:33N 37°56' E 023°36'1 0.6
2014-Apr-23 09:17N 37°57' E 023°37'0 0.0
2014-Apr-23 08:33N 37°57' E 023°37'1 1.0
2014-Apr-23 07:33N 37°57' E 023°35'6 5.6
2014-Apr-23 06:26N 38°02' E 023°30'5 1.7
2014-Apr-23 03:33N 37°57' E 023°33'2 0.2
2014-Apr-22 17:17N 37°57' E 023°37'0 0.4
2014-Apr-22 16:33N 37°58' E 023°36'1 1.1
2014-Apr-22 15:33N 37°57' E 023°36'1 1.0
2014-Apr-22 14:33N 37°57' E 023°37'0 0.0
2014-Apr-22 13:33N 37°57' E 023°37'0 0.0
2014-Apr-22 12:33N 37°57' E 023°37'1 0.6
2014-Apr-22 11:33N 37°57' E 023°36'1 0.8
2014-Apr-22 10:33N 37°57' E 023°35'8 6.9
2014-Apr-22 09:27N 37°60' E 023°26'3 2.8
2014-Apr-22 08:31N 37°58' E 023°23'9 2.9
2014-Apr-22 05:33N 37°57' E 023°34'2 2.3
2014-Apr-22 04:33N 37°57' E 023°37'0 0.0
2014-Apr-22 03:33N 37°57' E 023°37'0 0.0
2014-Apr-21 09:33N 37°57' E 023°37'9 7.2
2014-Apr-21 08:20N 37°60' E 023°26'3 2.5
2014-Apr-21 07:19N 37°58' E 023°23'0 0.5
2014-Apr-21 06:31N 37°58' E 023°23'0 0.2
2014-Apr-21 05:30N 37°58' E 023°23'5 5.4
2014-Apr-21 04:33N 37°53' E 023°24'8 8.6
2014-Apr-21 03:34N 37°56' E 023°34'7 0.3
2014-Apr-20 05:10N 38°02' E 023°32'5 0.9
2014-Apr-19 23:33N 37°60' E 023°27'3 3.1
2014-Apr-19 22:30N 37°58' E 023°23'5 4.9
2014-Apr-19 21:33N 37°54' E 023°23'8 8.3
2014-Apr-19 20:33N 37°55' E 023°34'3 2.8
2014-Apr-19 19:33N 37°57' E 023°36'0 0.3
2014-Apr-19 18:33N 37°57' E 023°36'1 0.7
2014-Apr-19 17:33N 37°57' E 023°37'0 0.0
2014-Apr-19 16:33N 37°57' E 023°37'1 1.3
2014-Apr-19 15:33N 37°56' E 023°37'0 0.0
2014-Apr-19 14:33N 37°56' E 023°37'1 0.5
2014-Apr-19 13:28N 37°56' E 023°38'1 1.6
2014-Apr-19 12:34N 37°57' E 023°37'0 0.0
2014-Apr-19 11:32N 37°57' E 023°37'0 0.2
2014-Apr-19 10:32N 37°57' E 023°36'0 0.1
2014-Apr-19 09:33N 37°58' E 023°36'0 0.3
2014-Apr-19 08:33N 37°57' E 023°37'0 0.0
2014-Apr-19 07:31N 37°57' E 023°37'0 0.0
2014-Apr-19 06:32N 37°57' E 023°37'0 0.0
2014-Apr-19 05:33N 37°57' E 023°37'1 0.8
2014-Apr-19 04:33N 37°57' E 023°36'1 1.1
2014-Apr-19 03:33N 37°56' E 023°37'1 0.1
2014-Apr-18 15:24N 37°57' E 023°36'1 0.7
2014-Apr-18 13:33N 37°57' E 023°35'1 1.2
2014-Apr-18 12:32N 37°57' E 023°36'1 0.6
2014-Apr-18 11:33N 37°57' E 023°37'0 0.0
2014-Apr-18 10:30N 37°57' E 023°37'0 0.1
2014-Apr-18 09:33N 37°57' E 023°36'1 1.3
2014-Apr-18 08:31N 37°56' E 023°38'2 1.6
2014-Apr-18 07:33N 37°57' E 023°36'1 0.7
2014-Apr-18 06:31N 37°57' E 023°37'6 4.6
2014-Apr-18 05:18N 38°02' E 023°32'3 3.4
2014-Apr-18 04:28N 37°59' E 023°33'3 0.1
2014-Apr-16 12:33N 37°57' E 023°36'0 0.4
2014-Apr-16 11:33N 37°57' E 023°37'0 0.0
2014-Apr-16 10:33N 37°57' E 023°37'1 1.1
2014-Apr-16 09:33N 37°57' E 023°35'2 1.8
2014-Apr-16 08:33N 37°58' E 023°33'3 2.9
2014-Apr-16 07:33N 38°00' E 023°32'5 4.6
2014-Apr-16 06:33N 37°57' E 023°37'1 1.0
2014-Apr-16 05:33N 37°56' E 023°37'1 1.3
2014-Apr-16 04:33N 37°57' E 023°36'0 0.4
2014-Apr-16 03:33N 37°57' E 023°35'1 0.1
2014-Apr-15 09:33N 37°57' E 023°37'1 0.5
2014-Apr-15 08:34N 37°57' E 023°36'0 0.5
2014-Apr-15 07:34N 37°57' E 023°36'1 0.8
2014-Apr-15 06:33N 37°57' E 023°37'3 2.8
2014-Apr-15 05:33N 37°58' E 023°33'2 1.1
2014-Apr-15 03:33N 37°57' E 023°36'2 0.1
2014-Apr-14 09:29N 37°57' E 023°38'2 1.6
2014-Apr-14 08:33N 37°57' E 023°37'0 0.0
2014-Apr-14 07:33N 37°57' E 023°37'1 0.1
2014-Apr-13 14:22N 37°56' E 023°37'  

Dump ship's entire track history

sailing weather and tide predictions

Atlas — SV6729 — position and weather